Time;durP1;ratioP1;P1;durP2;ratioP2;P2;SDS_P1;SDS_P2;PMS_P1;PMS_P2;Temp;Humidity;BMP_temperature;BMP_pressure;BME280_temperature;BME280_humidity;BME280_pressure;Samples;Min_cycle;Max_cycle;Signal;HPM_P1;HPM_P2
2022/12/21 00:00:17;;;;;;;3.70;3.17;;;8.90;99.90;;;;;;4992095;28;20177;-75
2022/12/21 00:02:43;;;;;;;4.90;3.50;;;8.80;99.90;;;;;;4991852;28;20332;-76
2022/12/21 00:05:09;;;;;;;4.43;3.70;;;8.80;99.90;;;;;;4992189;28;20170;-75
2022/12/21 00:07:35;;;;;;;9.47;4.10;;;8.70;99.90;;;;;;4992263;28;20541;-74
2022/12/21 00:10:01;;;;;;;6.80;4.10;;;8.60;99.90;;;;;;4996958;28;20508;-74
2022/12/21 00:12:26;;;;;;;7.60;4.80;;;8.60;99.90;;;;;;4996470;28;20432;-75
2022/12/21 00:14:52;;;;;;;10.60;4.83;;;8.40;99.90;;;;;;4997575;28;20192;-75
2022/12/21 00:17:17;;;;;;;5.90;4.30;;;8.40;99.90;;;;;;4996460;28;20203;-75
2022/12/21 00:19:43;;;;;;;7.03;5.60;;;8.40;99.90;;;;;;4992736;28;20186;-73
2022/12/21 00:22:09;;;;;;;9.33;5.73;;;8.40;99.90;;;;;;4992221;28;20195;-74
2022/12/21 00:24:35;;;;;;;10.17;5.50;;;8.30;99.90;;;;;;4992282;28;20825;-74
2022/12/21 00:27:01;;;;;;;6.10;5.50;;;8.30;99.90;;;;;;4991849;28;20179;-74
2022/12/21 00:29:28;;;;;;;6.40;3.90;;;8.20;99.90;;;;;;4992145;28;20182;-75
2022/12/21 00:31:53;;;;;;;4.23;2.67;;;8.30;99.90;;;;;;4991530;28;20920;-74
2022/12/21 00:34:19;;;;;;;4.90;2.50;;;8.60;99.90;;;;;;4992310;28;20423;-76
2022/12/21 00:36:46;;;;;;;7.77;3.90;;;8.90;99.90;;;;;;4991744;28;20545;-73
2022/12/21 00:39:12;;;;;;;4.87;3.10;;;9.10;99.90;;;;;;4992001;28;20412;-75
2022/12/21 00:41:38;;;;;;;4.73;3.33;;;9.30;99.90;;;;;;4991471;28;20448;-75
2022/12/21 00:44:04;;;;;;;4.77;2.70;;;9.40;99.90;;;;;;4991970;28;20780;-75
2022/12/21 00:46:31;;;;;;;6.97;2.97;;;9.40;99.90;;;;;;4991730;28;20209;-76
2022/12/21 00:48:58;;;;;;;5.27;2.33;;;9.60;99.90;;;;;;4992112;28;20697;-74
2022/12/21 00:51:25;;;;;;;2.00;1.80;;;9.70;99.90;;;;;;4991575;28;20441;-73
2022/12/21 00:53:53;;;;;;;2.87;2.13;;;9.90;99.90;;;;;;4991842;28;20519;-74
2022/12/21 00:56:19;;;;;;;2.93;2.00;;;10.00;99.90;;;;;;5023557;28;20425;-74
2022/12/21 00:58:45;;;;;;;2.20;1.73;;;10.10;99.90;;;;;;4991846;28;20452;-76
2022/12/21 01:01:16;;;;;;;5.80;1.97;;;10.10;99.90;;;;;;4991673;28;20558;-74
2022/12/21 01:03:42;;;;;;;3.70;1.97;;;10.20;99.90;;;;;;4991685;28;20418;-75
2022/12/21 01:06:16;;;;;;;5.03;1.83;;;10.20;99.90;;;;;;4992029;28;20910;-75
2022/12/21 01:08:42;;;;;;;2.37;2.00;;;10.20;99.90;;;;;;4991567;28;20679;-75
2022/12/21 01:11:10;;;;;;;2.13;1.93;;;10.30;99.90;;;;;;4991687;28;20434;-75
2022/12/21 01:13:36;;;;;;;3.80;2.40;;;10.30;99.90;;;;;;4991694;28;20480;-76
2022/12/21 01:16:01;;;;;;;3.50;1.97;;;10.30;99.90;;;;;;4991835;28;20426;-74
2022/12/21 01:18:27;;;;;;;2.93;2.63;;;10.30;99.90;;;;;;4991627;28;20204;-74
2022/12/21 01:20:54;;;;;;;4.30;2.33;;;10.30;99.90;;;;;;4991681;28;20286;-75
2022/12/21 01:23:20;;;;;;;2.80;1.77;;;10.20;99.90;;;;;;4991457;28;20230;-74
2022/12/21 01:25:46;;;;;;;3.77;2.43;;;10.10;99.90;;;;;;4993947;28;20410;-74
2022/12/21 01:28:13;;;;;;;4.13;2.53;;;10.20;99.90;;;;;;4995344;28;20469;-74
2022/12/21 01:30:38;;;;;;;2.80;2.23;;;10.20;99.90;;;;;;4994955;28;20170;-74
2022/12/21 01:33:05;;;;;;;2.53;2.17;;;10.20;99.90;;;;;;4994814;28;20446;-74
2022/12/21 01:35:30;;;;;;;3.00;2.10;;;10.20;99.90;;;;;;4995080;28;20558;-75
2022/12/21 01:37:56;;;;;;;2.70;2.50;;;10.10;99.90;;;;;;4994971;28;20458;-74
2022/12/21 01:40:21;;;;;;;2.40;2.00;;;10.10;99.90;;;;;;4994916;28;20183;-75
2022/12/21 01:42:47;;;;;;;3.20;1.93;;;10.10;99.90;;;;;;4994542;28;20214;-75
2022/12/21 01:45:16;;;;;;;3.97;2.40;;;10.20;99.90;;;;;;4994874;28;20179;-75
2022/12/21 01:47:53;;;;;;;3.67;2.80;;;10.10;99.90;;;;;;4994755;28;20529;-75
2022/12/21 01:50:18;;;;;;;3.50;2.53;;;10.10;99.90;;;;;;4995133;28;20506;-75
2022/12/21 01:52:44;;;;;;;7.17;2.93;;;10.10;99.90;;;;;;4994310;28;20529;-76
2022/12/21 01:55:10;;;;;;;8.10;2.07;;;10.00;99.90;;;;;;4994769;28;20671;-75
2022/12/21 01:57:36;;;;;;;4.20;1.57;;;10.00;99.90;;;;;;4994636;28;20462;-75
2022/12/21 03:33:12;;;;;;;2.00;1.90;;;9.80;99.90;;;;;;4628749;26;20477;-74
2022/12/21 03:35:53;;;;;;;2.07;1.87;;;9.70;99.90;;;;;;5047375;28;20465;-74
2022/12/21 03:38:24;;;;;;;1.93;1.53;;;9.70;99.90;;;;;;5051974;28;21048;-74
2022/12/21 03:40:55;;;;;;;3.90;2.10;;;9.70;99.90;;;;;;5054294;28;20895;-74
2022/12/21 03:43:34;;;;;;;2.67;2.47;;;9.70;99.90;;;;;;5071568;28;20815;-73
2022/12/21 03:46:04;;;;;;;2.10;2.00;;;9.80;99.90;;;;;;5063910;28;20524;-71
2022/12/21 03:48:55;;;;;;;5.00;2.80;;;9.70;99.90;;;;;;5039312;28;20428;-73
2022/12/21 03:51:44;;;;;;;2.07;1.93;;;9.70;99.90;;;;;;5031169;28;20581;-74
2022/12/21 03:54:31;;;;;;;2.43;1.97;;;9.70;99.90;;;;;;5043166;28;20790;-74
2022/12/21 03:56:58;;;;;;;4.07;1.63;;;9.70;99.90;;;;;;5051414;28;20921;-73
2022/12/21 03:59:24;;;;;;;3.90;2.20;;;9.60;99.90;;;;;;5033837;28;20423;-73
2022/12/21 04:02:01;;;;;;;2.27;2.07;;;9.60;99.90;;;;;;5051254;28;20932;-75
2022/12/21 04:04:58;;;;;;;2.23;1.97;;;9.60;99.90;;;;;;5051757;28;20446;-74
2022/12/21 04:07:26;;;;;;;2.80;1.87;;;9.60;99.90;;;;;;5051411;28;20433;-74
2022/12/21 04:10:09;;;;;;;2.73;2.53;;;9.60;99.90;;;;;;5051716;28;20507;-74
2022/12/21 04:12:38;;;;;;;3.17;2.20;;;9.60;99.90;;;;;;5051042;28;20486;-74
2022/12/21 04:15:23;;;;;;;1.97;1.73;;;9.60;99.90;;;;;;5051538;28;20418;-74
2022/12/21 04:17:51;;;;;;;3.60;2.27;;;9.60;99.90;;;;;;5051310;28;20465;-74
2022/12/21 04:20:22;;;;;;;2.13;2.03;;;9.50;99.90;;;;;;5051370;28;20897;-74
2022/12/21 04:28:25;;;;;;;5.43;1.70;;;9.60;99.90;;;;;;5051618;28;20921;-74
2022/12/21 04:30:50;;;;;;;4.90;2.07;;;9.50;99.90;;;;;;5051430;28;20436;-74
2022/12/21 04:33:19;;;;;;;11.03;2.00;;;9.60;99.90;;;;;;5050796;28;20444;-75
2022/12/21 04:38:32;;;;;;;2.20;1.60;;;9.60;99.90;;;;;;5051267;28;20876;-74
2022/12/21 04:40:58;;;;;;;3.80;1.83;;;9.60;99.90;;;;;;5051464;28;20437;-75
2022/12/21 04:43:25;;;;;;;3.13;1.97;;;9.60;99.90;;;;;;5051169;28;20426;-75
2022/12/21 04:46:02;;;;;;;2.00;1.70;;;9.60;99.90;;;;;;5055924;28;20515;-75
2022/12/21 04:48:28;;;;;;;6.30;2.70;;;9.60;99.90;;;;;;5056440;28;20934;-75
2022/12/21 04:50:54;;;;;;;5.00;2.00;;;9.70;99.90;;;;;;5055460;28;20435;-74
2022/12/21 04:53:19;;;;;;;1.50;1.40;;;9.70;99.90;;;;;;5053404;28;20431;-75
2022/12/21 04:55:45;;;;;;;4.53;1.83;;;9.60;99.90;;;;;;5051324;28;20175;-75
2022/12/21 04:58:11;;;;;;;1.90;1.80;;;9.60;99.90;;;;;;5050922;28;20689;-74
2022/12/21 05:00:36;;;;;;;1.57;1.40;;;9.70;99.90;;;;;;5055044;28;20186;-74
2022/12/21 05:03:02;;;;;;;4.13;2.13;;;9.70;99.90;;;;;;5054793;28;20427;-75
2022/12/21 05:05:28;;;;;;;1.90;1.40;;;9.70;99.90;;;;;;5054870;28;20557;-74
2022/12/21 05:07:54;;;;;;;11.93;1.77;;;9.70;99.90;;;;;;5055088;28;20537;-74
2022/12/21 05:10:19;;;;;;;2.37;1.70;;;9.70;99.90;;;;;;5054491;28;20434;-74
2022/12/21 05:12:45;;;;;;;1.90;1.80;;;9.80;99.90;;;;;;5054418;28;20204;-75
2022/12/21 05:15:13;;;;;;;2.03;1.50;;;9.80;99.90;;;;;;5054644;28;20238;-77
2022/12/21 05:17:39;;;;;;;1.80;1.40;;;9.80;99.90;;;;;;5055026;28;20748;-75
2022/12/21 05:20:05;;;;;;;2.50;1.60;;;9.80;99.90;;;;;;5054873;28;20441;-76
2022/12/21 05:22:30;;;;;;;4.23;1.47;;;9.80;99.90;;;;;;5054230;28;20470;-75
2022/12/21 05:24:56;;;;;;;4.07;1.40;;;9.90;99.90;;;;;;5054840;28;20801;-75
2022/12/21 05:27:21;;;;;;;2.70;1.50;;;9.90;99.90;;;;;;5054554;28;20190;-76
2022/12/21 05:29:47;;;;;;;3.13;1.10;;;9.90;99.90;;;;;;5054986;28;20721;-76
2022/12/21 05:32:12;;;;;;;4.97;1.80;;;9.90;99.90;;;;;;5053882;28;20274;-76
2022/12/21 05:34:38;;;;;;;1.60;1.50;;;9.90;99.90;;;;;;5054701;28;20216;-76
2022/12/21 05:37:03;;;;;;;2.70;1.73;;;9.90;99.90;;;;;;5054213;28;20181;-75
2022/12/21 05:39:29;;;;;;;1.73;1.50;;;10.00;99.90;;;;;;5054407;28;20581;-75
2022/12/21 05:41:54;;;;;;;6.47;1.57;;;10.00;99.90;;;;;;5054020;28;20227;-76
2022/12/21 05:44:20;;;;;;;1.73;1.37;;;10.00;99.90;;;;;;5054130;28;20174;-75
2022/12/21 05:46:45;;;;;;;4.10;1.33;;;10.00;99.90;;;;;;5054367;28;20699;-76
2022/12/21 05:49:11;;;;;;;1.73;1.40;;;10.00;99.90;;;;;;5054002;28;20180;-77
2022/12/21 05:51:36;;;;;;;1.40;1.20;;;10.00;99.90;;;;;;5035941;28;20689;-76
2022/12/21 05:54:02;;;;;;;1.33;1.20;;;9.90;99.90;;;;;;5054202;28;20700;-76
2022/12/21 05:56:28;;;;;;;2.50;1.80;;;9.90;99.90;;;;;;5054227;28;20172;-75
2022/12/21 05:58:53;;;;;;;3.70;2.00;;;9.80;99.90;;;;;;5053880;28;20580;-75
2022/12/21 06:01:19;;;;;;;3.17;1.60;;;9.80;99.90;;;;;;5053632;28;20219;-76
2022/12/21 06:03:44;;;;;;;2.70;1.40;;;9.70;99.90;;;;;;5035998;28;20190;-76
2022/12/21 06:06:12;;;;;;;2.57;1.60;;;9.70;99.90;;;;;;5036200;28;20183;-76
2022/12/21 06:08:38;;;;;;;3.73;2.23;;;9.80;99.90;;;;;;5054067;28;20224;-76
2022/12/21 06:11:06;;;;;;;2.50;1.77;;;9.80;99.90;;;;;;5052748;28;20443;-74
2022/12/21 06:13:32;;;;;;;5.33;1.60;;;9.80;99.90;;;;;;5053745;28;20537;-76
2022/12/21 06:16:08;;;;;;;3.27;1.67;;;9.80;99.90;;;;;;5053761;28;20418;-76
2022/12/21 06:18:34;;;;;;;1.93;1.20;;;9.90;99.90;;;;;;5053467;28;20234;-74
2022/12/21 06:21:00;;;;;;;1.70;1.57;;;9.90;99.90;;;;;;5053409;28;20432;-75
2022/12/21 06:23:25;;;;;;;3.50;1.80;;;9.90;99.90;;;;;;5053390;28;20485;-75
2022/12/21 06:25:59;;;;;;;3.57;1.67;;;9.90;99.90;;;;;;5052669;28;20534;-74
2022/12/21 06:28:25;;;;;;;3.10;2.00;;;9.80;99.90;;;;;;5053277;28;20682;-75
2022/12/21 06:30:54;;;;;;;3.73;1.93;;;9.90;99.90;;;;;;5053271;28;20414;-75
2022/12/21 06:33:22;;;;;;;5.00;1.53;;;9.80;99.90;;;;;;5053173;28;20433;-75
2022/12/21 06:35:52;;;;;;;5.73;1.53;;;9.80;99.90;;;;;;5048331;28;20459;-75
2022/12/21 06:38:17;;;;;;;6.93;2.13;;;9.80;99.90;;;;;;5041642;28;20901;-76
2022/12/21 06:40:43;;;;;;;1.50;1.40;;;9.80;99.90;;;;;;5053742;28;20449;-75
2022/12/21 06:43:09;;;;;;;3.67;1.30;;;9.90;99.90;;;;;;5050994;28;20180;-74
2022/12/21 06:45:34;;;;;;;5.43;1.80;;;9.90;99.90;;;;;;5051825;28;20227;-75
2022/12/21 06:48:00;;;;;;;2.00;1.83;;;9.90;99.90;;;;;;5051356;28;20741;-75
2022/12/21 06:50:25;;;;;;;2.00;1.63;;;9.90;99.90;;;;;;5052696;28;20234;-75
2022/12/21 06:52:51;;;;;;;2.60;1.57;;;9.90;99.90;;;;;;5051792;28;20204;-75
2022/12/21 06:55:16;;;;;;;4.30;1.47;;;10.00;99.90;;;;;;5052660;28;20274;-75
2022/12/21 06:57:42;;;;;;;1.60;1.50;;;10.00;99.90;;;;;;5052990;28;20201;-75
2022/12/21 07:00:09;;;;;;;1.67;1.57;;;10.00;99.90;;;;;;5052985;28;20211;-76
2022/12/21 07:02:36;;;;;;;3.27;1.60;;;9.90;99.90;;;;;;5052551;28;20439;-74
2022/12/21 07:05:02;;;;;;;6.13;1.50;;;9.90;99.90;;;;;;5053144;28;20420;-74
2022/12/21 07:07:27;;;;;;;1.97;1.80;;;9.90;99.90;;;;;;5052865;28;20446;-75
2022/12/21 07:09:53;;;;;;;1.40;1.30;;;10.00;99.90;;;;;;5053206;28;20419;-75
2022/12/21 07:12:18;;;;;;;3.10;1.77;;;10.00;99.90;;;;;;5051955;28;20208;-75
2022/12/21 07:14:44;;;;;;;4.33;2.00;;;10.00;99.90;;;;;;5052585;28;20200;-75
2022/12/21 07:17:10;;;;;;;1.70;1.50;;;10.00;99.90;;;;;;5052097;28;20209;-74
2022/12/21 07:19:36;;;;;;;3.70;1.70;;;10.00;99.90;;;;;;5034764;28;20180;-75
2022/12/21 07:22:01;;;;;;;3.43;1.40;;;10.00;99.90;;;;;;5051340;28;20446;-75
2022/12/21 07:24:27;;;;;;;1.90;1.53;;;10.00;99.90;;;;;;5055645;28;20732;-75
2022/12/21 07:26:54;;;;;;;3.57;1.60;;;10.00;99.90;;;;;;5055555;28;20186;-74
2022/12/21 07:29:20;;;;;;;2.60;1.83;;;10.00;99.90;;;;;;5037215;28;20249;-76
2022/12/21 07:31:46;;;;;;;3.23;1.90;;;10.00;99.90;;;;;;5035033;28;20486;-75
2022/12/21 07:34:12;;;;;;;1.90;1.53;;;10.00;99.90;;;;;;5037529;28;20789;-74
2022/12/21 07:36:38;;;;;;;3.00;1.60;;;10.00;99.90;;;;;;5040371;28;20180;-75
2022/12/21 07:39:03;;;;;;;4.10;2.00;;;10.00;99.90;;;;;;5057409;28;20995;-73
2022/12/21 07:41:29;;;;;;;5.23;2.20;;;10.00;99.90;;;;;;5057404;28;20977;-74
2022/12/21 07:43:55;;;;;;;2.07;1.67;;;10.00;99.90;;;;;;5058092;28;20287;-75
2022/12/21 07:46:21;;;;;;;2.20;1.67;;;9.90;99.90;;;;;;5057566;28;20624;-76
2022/12/21 07:48:47;;;;;;;7.17;1.60;;;10.00;99.90;;;;;;5053953;28;20203;-74
2022/12/21 07:51:13;;;;;;;2.00;1.90;;;9.90;99.90;;;;;;5020187;28;20200;-74
2022/12/21 07:53:39;;;;;;;2.37;1.13;;;10.00;99.90;;;;;;5057237;28;20457;-75
2022/12/21 07:56:13;;;;;;;3.00;1.70;;;10.00;99.90;;;;;;5038004;28;20449;-75
2022/12/21 07:58:39;;;;;;;1.87;1.53;;;10.00;99.90;;;;;;5039038;28;20513;-74
2022/12/21 08:01:09;;;;;;;2.70;1.73;;;9.90;99.90;;;;;;5034660;28;20443;-73
2022/12/21 08:03:35;;;;;;;2.00;1.53;;;9.90;99.90;;;;;;5051831;28;20454;-75
2022/12/21 08:06:01;;;;;;;3.70;2.10;;;9.90;99.90;;;;;;5052088;28;20423;-76
2022/12/21 08:08:27;;;;;;;3.63;1.53;;;9.90;99.90;;;;;;5051861;28;20474;-76
2022/12/21 08:10:52;;;;;;;6.70;1.80;;;9.90;99.90;;;;;;5051693;28;20206;-75
2022/12/21 08:13:18;;;;;;;7.03;2.10;;;9.90;99.90;;;;;;5051262;28;20184;-76
2022/12/21 08:15:43;;;;;;;3.07;1.80;;;9.80;99.90;;;;;;5051478;28;20662;-76
2022/12/21 08:18:09;;;;;;;5.27;2.00;;;9.90;99.90;;;;;;5051248;28;20754;-76
2022/12/21 08:20:35;;;;;;;2.30;2.10;;;9.80;99.90;;;;;;5051061;28;20173;-74
2022/12/21 08:23:00;;;;;;;2.27;1.30;;;9.80;99.90;;;;;;5051416;28;20419;-74
2022/12/21 08:25:26;;;;;;;5.17;2.03;;;9.80;99.90;;;;;;5051405;28;20180;-76
2022/12/21 08:27:51;;;;;;;1.50;1.40;;;9.80;99.90;;;;;;5051430;28;20214;-76
2022/12/21 08:30:17;;;;;;;2.43;1.80;;;9.80;99.90;;;;;;5051140;28;20580;-75
2022/12/21 08:32:43;;;;;;;2.43;1.60;;;9.80;99.90;;;;;;5050981;28;20207;-75
2022/12/21 08:35:08;;;;;;;5.00;1.63;;;9.80;99.90;;;;;;5054583;28;20167;-75
2022/12/21 08:37:34;;;;;;;7.03;2.40;;;9.80;99.90;;;;;;5037323;28;20233;-76
2022/12/21 08:39:59;;;;;;;3.07;1.60;;;9.80;99.90;;;;;;5054245;28;20271;-74
2022/12/21 08:42:25;;;;;;;4.20;2.17;;;9.80;99.90;;;;;;5053422;28;20200;-73
2022/12/21 08:44:50;;;;;;;2.13;1.90;;;9.80;99.90;;;;;;5053823;28;20287;-73
2022/12/21 08:47:16;;;;;;;1.50;1.30;;;9.80;99.90;;;;;;5054668;28;20204;-74
2022/12/21 08:49:42;;;;;;;6.67;1.23;;;9.80;99.90;;;;;;5053626;28;20192;-74
2022/12/21 08:52:07;;;;;;;3.70;1.60;;;9.80;99.90;;;;;;5034782;28;20196;-75
2022/12/21 08:54:33;;;;;;;3.70;1.60;;;9.80;99.90;;;;;;5053751;28;20516;-74
2022/12/21 08:56:58;;;;;;;2.20;2.00;;;9.80;99.90;;;;;;5055533;28;20176;-74
2022/12/21 08:59:24;;;;;;;5.23;1.73;;;9.80;99.90;;;;;;5055334;28;20237;-74
2022/12/21 09:01:51;;;;;;;3.27;1.90;;;9.90;99.90;;;;;;5055139;28;20195;-75
2022/12/21 09:04:17;;;;;;;3.43;1.53;;;9.80;99.90;;;;;;5055089;28;20583;-74
2022/12/21 09:06:54;;;;;;;2.37;1.57;;;9.90;99.90;;;;;;5055751;28;20419;-74
2022/12/21 09:09:20;;;;;;;4.20;1.73;;;9.80;99.90;;;;;;5055822;28;20181;-74
2022/12/21 09:11:46;;;;;;;2.80;1.90;;;9.90;99.90;;;;;;5038458;28;20496;-75
2022/12/21 09:14:11;;;;;;;3.33;2.07;;;9.90;99.90;;;;;;5019451;28;20183;-75
2022/12/21 09:16:37;;;;;;;3.83;2.27;;;9.90;99.90;;;;;;5035353;28;20411;-75
2022/12/21 09:19:02;;;;;;;3.27;2.00;;;9.90;99.90;;;;;;5034500;28;20185;-74
2022/12/21 09:21:28;;;;;;;3.03;2.00;;;9.90;99.90;;;;;;5035288;28;20208;-75
2022/12/21 09:23:54;;;;;;;5.20;1.77;;;9.90;99.90;;;;;;5035808;28;20181;-75
2022/12/21 09:26:20;;;;;;;3.97;1.60;;;9.90;99.90;;;;;;5048929;28;20561;-75
2022/12/21 09:28:45;;;;;;;2.93;1.90;;;10.00;99.90;;;;;;5032493;28;20208;-75
2022/12/21 09:31:17;;;;;;;3.03;2.10;;;10.00;99.90;;;;;;5033748;28;20434;-75
2022/12/21 09:33:44;;;;;;;5.63;1.70;;;9.90;99.90;;;;;;5034405;28;20206;-74
2022/12/21 09:36:11;;;;;;;1.90;1.70;;;9.90;99.90;;;;;;5016470;28;20420;-74
2022/12/21 09:38:37;;;;;;;2.13;1.93;;;9.90;99.90;;;;;;5016884;28;20435;-74
2022/12/21 09:41:05;;;;;;;3.97;2.87;;;9.90;99.90;;;;;;5034281;28;20448;-73
2022/12/21 09:43:43;;;;;;;4.70;1.97;;;9.90;99.90;;;;;;5034002;28;20231;-74
2022/12/21 09:46:13;;;;;;;2.87;2.20;;;10.00;99.90;;;;;;5033372;28;20425;-75
2022/12/21 09:48:55;;;;;;;2.60;1.97;;;10.00;99.90;;;;;;5034069;28;20462;-74
2022/12/21 09:51:27;;;;;;;5.10;2.10;;;10.00;99.90;;;;;;5033740;28;20444;-75
2022/12/21 09:54:15;;;;;;;4.90;2.23;;;10.00;99.90;;;;;;5033680;28;20412;-74
2022/12/21 09:56:44;;;;;;;1.43;1.33;;;10.00;99.90;;;;;;5034329;28;20407;-74
2022/12/21 09:59:15;;;;;;;2.50;2.10;;;10.10;99.90;;;;;;5033935;28;20411;-75
2022/12/21 10:02:05;;;;;;;1.53;1.40;;;10.00;99.90;;;;;;5034030;28;20447;-74
2022/12/21 10:04:40;;;;;;;5.60;2.13;;;10.10;99.90;;;;;;5034274;28;20416;-75
2022/12/21 10:07:32;;;;;;;3.57;1.90;;;10.10;99.90;;;;;;5033732;28;20412;-74
2022/12/21 10:10:16;;;;;;;1.93;1.70;;;10.10;99.90;;;;;;5033829;28;20822;-74
2022/12/21 10:13:04;;;;;;;5.20;2.10;;;10.20;99.90;;;;;;5033641;28;20471;-75
2022/12/21 10:15:52;;;;;;;4.67;2.40;;;10.20;99.90;;;;;;5033984;28;20419;-73
2022/12/21 10:18:28;;;;;;;5.40;1.83;;;10.20;99.90;;;;;;5033282;28;20428;-75
2022/12/21 10:21:17;;;;;;;2.63;1.70;;;10.20;99.90;;;;;;5033555;28;20416;-75
2022/12/21 10:23:49;;;;;;;4.10;1.90;;;10.20;99.90;;;;;;5033362;28;20409;-74
2022/12/21 10:26:19;;;;;;;2.50;2.37;;;10.30;99.90;;;;;;5043306;28;20453;-74
2022/12/21 10:28:53;;;;;;;6.07;2.33;;;10.30;99.90;;;;;;5054806;28;20470;-74
2022/12/21 10:31:24;;;;;;;2.37;1.90;;;10.30;99.90;;;;;;5054848;28;20447;-74
2022/12/21 10:33:51;;;;;;;4.33;1.77;;;10.30;99.90;;;;;;5053451;28;20510;-75
2022/12/21 10:36:20;;;;;;;5.27;1.87;;;10.40;99.90;;;;;;5035339;28;20455;-75
2022/12/21 10:38:46;;;;;;;4.83;2.43;;;10.40;99.90;;;;;;5053048;28;20417;-74
2022/12/21 10:41:22;;;;;;;2.33;2.13;;;10.40;99.90;;;;;;5034611;28;20451;-73
2022/12/21 10:43:52;;;;;;;2.67;1.90;;;10.40;99.90;;;;;;5052874;28;20941;-74
2022/12/21 10:46:19;;;;;;;4.53;2.17;;;10.50;99.90;;;;;;5053149;28;20796;-74
2022/12/21 10:48:50;;;;;;;4.50;2.17;;;10.60;99.90;;;;;;5053032;28;20466;-74
2022/12/21 10:51:35;;;;;;;1.70;1.60;;;10.70;99.90;;;;;;5052621;28;20466;-75
2022/12/21 10:54:01;;;;;;;2.37;2.17;;;10.90;99.90;;;;;;5052820;28;20408;-74
2022/12/21 10:56:28;;;;;;;1.80;1.70;;;11.40;99.90;;;;;;5052951;28;20419;-74
2022/12/21 10:58:54;;;;;;;8.07;1.97;;;11.80;99.90;;;;;;5052797;28;20508;-74
2022/12/21 11:01:27;;;;;;;2.60;2.10;;;12.10;99.90;;;;;;5052810;28;20510;-74
2022/12/21 11:04:07;;;;;;;2.00;1.60;;;12.30;99.90;;;;;;5037833;28;20459;-74
2022/12/21 11:06:33;;;;;;;3.27;1.93;;;12.50;99.90;;;;;;5055770;28;20416;-74
2022/12/21 11:08:59;;;;;;;3.13;1.70;;;12.80;99.90;;;;;;5037674;28;20987;-74
2022/12/21 11:11:31;;;;;;;3.03;1.97;;;12.80;99.90;;;;;;5056028;28;20435;-74
2022/12/21 11:13:59;;;;;;;2.30;2.20;;;12.70;99.90;;;;;;5021582;28;20456;-74
2022/12/21 11:16:29;;;;;;;3.73;1.97;;;12.80;99.90;;;;;;5057411;28;20419;-74
2022/12/21 11:18:59;;;;;;;1.30;1.20;;;13.10;99.90;;;;;;5044273;28;20416;-75
2022/12/21 11:21:53;;;;;;;3.27;1.80;;;13.20;99.90;;;;;;5065389;28;20554;-75
2022/12/21 11:24:26;;;;;;;2.33;2.10;;;13.40;99.90;;;;;;5065221;28;20415;-74
2022/12/21 11:26:53;;;;;;;1.63;1.37;;;13.50;99.90;;;;;;5043960;28;20431;-75
2022/12/21 11:29:27;;;;;;;3.43;1.57;;;13.50;99.90;;;;;;5063274;28;20873;-75
2022/12/21 11:31:55;;;;;;;2.17;1.10;;;13.80;99.90;;;;;;5062509;28;20940;-74
2022/12/21 11:34:32;;;;;;;7.43;1.90;;;13.90;99.90;;;;;;5060798;28;20422;-75
2022/12/21 11:37:22;;;;;;;3.20;1.57;;;14.10;99.90;;;;;;5056644;28;20423;-75
2022/12/21 11:39:48;;;;;;;2.03;1.83;;;14.00;99.90;;;;;;5056088;28;20944;-76
2022/12/21 11:42:22;;;;;;;3.33;1.20;;;14.20;99.90;;;;;;5037871;28;21054;-76
2022/12/21 11:44:50;;;;;;;2.27;1.27;;;14.40;99.90;;;;;;5053926;28;20512;-76
2022/12/21 11:47:34;;;;;;;1.30;1.20;;;14.40;99.90;;;;;;5034997;28;20420;-76
2022/12/21 11:50:21;;;;;;;1.57;1.47;;;14.50;99.90;;;;;;5036058;28;20416;-75
2022/12/21 11:52:53;;;;;;;2.57;1.50;;;14.60;99.90;;;;;;5053926;28;20859;-75
2022/12/21 11:55:41;;;;;;;4.70;1.90;;;14.70;99.90;;;;;;5053763;28;20416;-75
2022/12/21 11:58:17;;;;;;;2.87;1.40;;;14.50;99.90;;;;;;5035500;28;20415;-74
2022/12/21 12:01:09;;;;;;;1.30;1.20;;;14.20;99.90;;;;;;5053708;28;20504;-73
2022/12/21 12:03:57;;;;;;;2.50;1.57;;;14.10;99.90;;;;;;5034372;28;20435;-73
2022/12/21 12:07:00;;;;;;;7.20;2.60;;;13.90;99.90;;;;;;5053392;28;20849;-72
2022/12/21 12:09:52;;;;;;;2.90;2.20;;;13.90;99.90;;;;;;4937524;28;20435;-74
2022/12/21 12:12:32;;;;;;;2.00;1.90;;;13.90;99.90;;;;;;5053097;28;20435;-74
2022/12/21 12:15:56;;;;;;;2.40;1.50;;;14.00;99.90;;;;;;5053479;28;20753;-75
2022/12/21 12:18:46;;;;;;;2.30;2.03;;;14.00;99.90;;;;;;4995105;28;20787;-75
2022/12/21 12:21:31;;;;;;;3.03;2.00;;;14.00;99.90;;;;;;5053279;28;20493;-74
2022/12/21 12:24:23;;;;;;;2.03;1.13;;;13.80;99.90;;;;;;5043706;28;20409;-75
2022/12/21 12:27:10;;;;;;;2.50;1.07;;;13.70;99.90;;;;;;5033230;28;20416;-76
2022/12/21 12:29:48;;;;;;;0.93;0.83;;;13.70;99.90;;;;;;5015330;28;20436;-74
2022/12/21 12:32:45;;;;;;;1.23;1.03;;;13.70;99.90;;;;;;5015466;28;20871;-75
2022/12/21 12:35:49;;;;;;;1.53;1.40;;;13.70;99.90;;;;;;5031791;28;20401;-74
2022/12/21 12:38:35;;;;;;;3.10;1.20;;;13.80;99.90;;;;;;5032948;28;20479;-74
2022/12/21 12:41:19;;;;;;;1.93;0.90;;;13.90;99.90;;;;;;5033534;28;20429;-74
2022/12/21 12:43:53;;;;;;;6.27;1.03;;;13.80;99.90;;;;;;5031280;28;20424;-75
2022/12/21 12:46:40;;;;;;;0.83;0.83;;;13.80;99.90;;;;;;5032941;28;20440;-74
2022/12/21 12:49:34;;;;;;;1.10;0.93;;;13.90;99.90;;;;;;5015497;28;20837;-75
2022/12/21 12:52:13;;;;;;;1.63;1.37;;;14.10;99.90;;;;;;5033223;28;20480;-75
2022/12/21 12:55:20;;;;;;;1.03;0.90;;;14.10;99.90;;;;;;5033003;28;20408;-75
2022/12/21 12:58:09;;;;;;;1.80;1.00;;;14.10;99.90;;;;;;5033321;28;20427;-75
2022/12/21 13:00:51;;;;;;;1.13;1.13;;;13.90;99.90;;;;;;5033593;28;20475;-73
2022/12/21 13:03:38;;;;;;;1.10;1.00;;;13.60;99.90;;;;;;5001338;28;20420;-75
2022/12/21 13:06:22;;;;;;;0.80;0.80;;;13.40;99.90;;;;;;5032783;28;20945;-75
2022/12/21 13:09:17;;;;;;;2.43;1.00;;;13.30;99.90;;;;;;5033106;28;20850;-75
2022/12/21 13:12:15;;;;;;;2.40;1.00;;;13.10;99.90;;;;;;4944846;28;20445;-73
2022/12/21 13:15:03;;;;;;;2.83;1.07;;;13.00;99.90;;;;;;5014966;28;20503;-73
2022/12/21 13:17:53;;;;;;;0.70;0.70;;;12.90;99.90;;;;;;5015701;28;20411;-75
2022/12/21 13:20:22;;;;;;;1.70;0.80;;;12.80;99.90;;;;;;5035041;28;20436;-74
2022/12/21 13:22:55;;;;;;;1.20;1.10;;;12.70;99.90;;;;;;5036711;28;20424;-75
2022/12/21 13:25:37;;;;;;;2.83;1.27;;;12.60;99.90;;;;;;5018649;28;20470;-74
2022/12/21 13:28:08;;;;;;;1.00;0.90;;;12.60;99.90;;;;;;5037435;28;20826;-74
2022/12/21 13:30:38;;;;;;;1.07;0.97;;;12.50;99.90;;;;;;5020076;28;20413;-75
2022/12/21 13:33:04;;;;;;;0.90;0.90;;;12.50;99.90;;;;;;5020289;28;20428;-74
2022/12/21 13:35:42;;;;;;;1.13;1.03;;;12.50;99.90;;;;;;5036640;28;20840;-76
2022/12/21 13:38:21;;;;;;;1.00;1.00;;;12.40;99.90;;;;;;5018530;28;20428;-74
2022/12/21 13:41:10;;;;;;;1.53;0.77;;;12.40;99.90;;;;;;5016648;28;20944;-74
2022/12/21 13:43:43;;;;;;;1.33;1.10;;;12.40;99.90;;;;;;5034310;28;20431;-75
2022/12/21 13:46:09;;;;;;;1.33;1.00;;;12.40;99.90;;;;;;5034310;28;20834;-75
2022/12/21 13:48:46;;;;;;;1.73;1.63;;;12.40;99.90;;;;;;5034103;28;20551;-75
2022/12/21 13:51:25;;;;;;;1.10;0.90;;;12.40;99.90;;;;;;5033963;28;20202;-74
2022/12/21 13:54:19;;;;;;;1.10;1.00;;;12.30;99.90;;;;;;5034077;28;20504;-74
2022/12/21 13:57:15;;;;;;;0.83;0.83;;;12.30;99.90;;;;;;5033136;28;20449;-73
2022/12/21 14:00:07;;;;;;;1.67;1.17;;;12.30;99.90;;;;;;5033373;28;20579;-75
2022/12/21 14:02:51;;;;;;;1.10;1.00;;;12.30;99.90;;;;;;5032989;28;20476;-74
2022/12/21 14:05:27;;;;;;;0.90;0.90;;;12.10;99.90;;;;;;5033069;28;20925;-74
2022/12/21 14:08:19;;;;;;;1.00;1.00;;;12.10;99.90;;;;;;5032786;28;20534;-73
2022/12/21 14:11:08;;;;;;;0.93;0.93;;;11.90;99.90;;;;;;5033549;28;20428;-73
2022/12/21 14:13:55;;;;;;;2.40;1.37;;;11.90;99.90;;;;;;5056400;28;20456;-74
2022/12/21 14:16:30;;;;;;;1.43;0.97;;;11.80;99.90;;;;;;5032714;28;20443;-73
2022/12/21 14:18:58;;;;;;;2.10;0.90;;;11.80;99.90;;;;;;5035649;28;20467;-73
2022/12/21 14:21:32;;;;;;;1.30;1.20;;;11.80;99.90;;;;;;5050634;28;20443;-73
2022/12/21 14:24:01;;;;;;;1.87;0.83;;;11.70;99.90;;;;;;5052019;28;20440;-73
2022/12/21 14:26:42;;;;;;;2.03;1.33;;;11.70;99.90;;;;;;5034812;28;20490;-74
2022/12/21 14:29:33;;;;;;;2.33;1.37;;;11.60;99.90;;;;;;5051769;28;20483;-75
2022/12/21 14:32:12;;;;;;;0.83;0.77;;;11.60;99.90;;;;;;5047356;28;20667;-73
2022/12/21 14:34:48;;;;;;;1.13;1.00;;;11.50;99.90;;;;;;5052324;28;20462;-73
2022/12/21 14:37:13;;;;;;;0.90;0.90;;;11.50;99.90;;;;;;5052127;28;20958;-73
2022/12/21 14:39:43;;;;;;;7.33;1.47;;;11.40;99.90;;;;;;5052008;28;20451;-74
2022/12/21 14:42:30;;;;;;;1.40;1.30;;;11.40;99.90;;;;;;5051594;28;20205;-73
2022/12/21 14:45:11;;;;;;;1.27;1.17;;;11.40;99.90;;;;;;5051824;28;20538;-74
2022/12/21 14:47:57;;;;;;;1.60;0.90;;;11.40;99.90;;;;;;5051914;28;20994;-74
2022/12/21 14:50:23;;;;;;;2.97;0.90;;;11.30;99.90;;;;;;5046937;28;20479;-73
2022/12/21 14:53:08;;;;;;;2.07;1.07;;;11.20;99.90;;;;;;5051856;28;20663;-74
2022/12/21 14:55:36;;;;;;;1.87;1.50;;;11.20;99.90;;;;;;5052568;28;20193;-75